sensor_id;sensor_type;location;lat;lon;timestamp;P1;durP1;ratioP1;P2;durP2;ratioP2
51238;SDS011;38154;47.548;18.828;2023-02-03T09:47:28;4.30;;;3.03;;
51238;SDS011;38154;47.548;18.828;2023-02-03T09:50:09;6.53;;;3.75;;
51238;SDS011;38154;47.548;18.828;2023-02-03T09:52:39;4.65;;;2.33;;
51238;SDS011;38154;47.548;18.828;2023-02-03T09:55:19;4.35;;;2.87;;
51238;SDS011;38154;47.548;18.828;2023-02-03T09:57:52;5.65;;;3.58;;
51238;SDS011;38154;47.548;18.828;2023-02-03T10:00:29;5.60;;;3.90;;
51238;SDS011;38154;47.548;18.828;2023-02-03T10:05:40;6.10;;;3.70;;
51238;SDS011;38154;47.548;18.828;2023-02-03T10:13:53;5.78;;;2.90;;
51238;SDS011;38154;47.548;18.828;2023-02-03T10:19:10;4.45;;;3.05;;
51238;SDS011;38154;47.548;18.828;2023-02-03T10:21:42;10.07;;;3.33;;
51238;SDS011;38154;47.548;18.828;2023-02-03T10:24:16;3.40;;;2.55;;
51238;SDS011;38154;47.548;18.828;2023-02-03T10:26:46;5.82;;;3.95;;
51238;SDS011;38154;47.548;18.828;2023-02-03T10:29:20;4.15;;;2.90;;
51238;SDS011;38154;47.548;18.828;2023-02-03T10:31:53;8.27;;;3.75;;
51238;SDS011;38154;47.548;18.828;2023-02-03T10:34:23;6.53;;;3.42;;
51238;SDS011;38154;47.548;18.828;2023-02-03T10:36:56;5.75;;;3.20;;
51238;SDS011;38154;47.548;18.828;2023-02-03T10:39:28;8.07;;;3.72;;
51238;SDS011;38154;47.548;18.828;2023-02-03T10:41:57;6.05;;;4.30;;
51238;SDS011;38154;47.548;18.828;2023-02-03T10:44:30;7.25;;;4.30;;
51238;SDS011;38154;47.548;18.828;2023-02-03T10:47:00;6.40;;;4.65;;
51238;SDS011;38154;47.548;18.828;2023-02-03T10:49:26;4.45;;;3.95;;
51238;SDS011;38154;47.548;18.828;2023-02-03T10:51:54;4.03;;;2.58;;
51238;SDS011;38154;47.548;18.828;2023-02-03T10:54:31;5.25;;;3.37;;
51238;SDS011;38154;47.548;18.828;2023-02-03T10:57:05;6.80;;;3.65;;
51238;SDS011;38154;47.548;18.828;2023-02-03T10:59:42;5.12;;;3.05;;
51238;SDS011;38154;47.548;18.828;2023-02-03T11:02:23;4.45;;;2.47;;
51238;SDS011;38154;47.548;18.828;2023-02-03T11:05:16;3.60;;;2.55;;
51238;SDS011;38154;47.548;18.828;2023-02-03T11:07:43;5.10;;;3.65;;
51238;SDS011;38154;47.548;18.828;2023-02-03T11:10:51;6.40;;;3.92;;
51238;SDS011;38154;47.548;18.828;2023-02-03T11:15:35;3.72;;;2.53;;
51238;SDS011;38154;47.548;18.828;2023-02-03T11:18:01;4.72;;;3.08;;
51238;SDS011;38154;47.548;18.828;2023-02-03T11:20:27;2.83;;;1.87;;
51238;SDS011;38154;47.548;18.828;2023-02-03T11:22:54;2.42;;;1.98;;
51238;SDS011;38154;47.548;18.828;2023-02-03T11:25:23;2.25;;;2.03;;
51238;SDS011;38154;47.548;18.828;2023-02-03T11:27:54;2.22;;;2.03;;
51238;SDS011;38154;47.548;18.828;2023-02-03T11:32:54;3.00;;;2.70;;
51238;SDS011;38154;47.548;18.828;2023-02-03T11:35:24;3.40;;;2.30;;
51238;SDS011;38154;47.548;18.828;2023-02-03T11:37:55;2.22;;;2.03;;
51238;SDS011;38154;47.548;18.828;2023-02-03T11:40:29;2.17;;;2.05;;
51238;SDS011;38154;47.548;18.828;2023-02-03T11:45:26;1.95;;;1.85;;
51238;SDS011;38154;47.548;18.828;2023-02-03T11:47:53;4.18;;;2.10;;
51238;SDS011;38154;47.548;18.828;2023-02-03T11:58:04;2.25;;;2.05;;
51238;SDS011;38154;47.548;18.828;2023-02-03T12:03:17;3.40;;;3.10;;
51238;SDS011;38154;47.548;18.828;2023-02-03T12:06:18;2.15;;;1.80;;
51238;SDS011;38154;47.548;18.828;2023-02-03T12:15:23;3.33;;;2.80;;
51238;SDS011;38154;47.548;18.828;2023-02-03T12:23:25;2.40;;;1.62;;
51238;SDS011;38154;47.548;18.828;2023-02-03T12:31:30;2.35;;;2.05;;
51238;SDS011;38154;47.548;18.828;2023-02-03T12:39:50;3.28;;;2.47;;
51238;SDS011;38154;47.548;18.828;2023-02-03T12:42:23;2.47;;;2.20;;
51238;SDS011;38154;47.548;18.828;2023-02-03T12:47:35;4.93;;;2.50;;
51238;SDS011;38154;47.548;18.828;2023-02-03T12:50:23;3.72;;;2.90;;
51238;SDS011;38154;47.548;18.828;2023-02-03T12:53:30;4.32;;;2.67;;
51238;SDS011;38154;47.548;18.828;2023-02-03T12:58:49;1.90;;;1.67;;
51238;SDS011;38154;47.548;18.828;2023-02-03T13:01:33;4.90;;;3.30;;
51238;SDS011;38154;47.548;18.828;2023-02-03T13:07:02;6.65;;;4.30;;
51238;SDS011;38154;47.548;18.828;2023-02-03T13:14:49;2.78;;;2.20;;
51238;SDS011;38154;47.548;18.828;2023-02-03T13:19:56;3.05;;;2.37;;
51238;SDS011;38154;47.548;18.828;2023-02-03T13:22:26;3.42;;;2.65;;
51238;SDS011;38154;47.548;18.828;2023-02-03T13:24:56;4.05;;;2.20;;
51238;SDS011;38154;47.548;18.828;2023-02-03T13:27:36;2.40;;;2.00;;
51238;SDS011;38154;47.548;18.828;2023-02-03T13:35:40;5.15;;;3.15;;
51238;SDS011;38154;47.548;18.828;2023-02-03T13:40:56;5.03;;;2.83;;
51238;SDS011;38154;47.548;18.828;2023-02-03T13:43:36;4.30;;;2.78;;
51238;SDS011;38154;47.548;18.828;2023-02-03T13:46:05;7.03;;;2.78;;
51238;SDS011;38154;47.548;18.828;2023-02-03T13:48:42;3.95;;;3.03;;
51238;SDS011;38154;47.548;18.828;2023-02-03T13:51:14;4.82;;;2.80;;
51238;SDS011;38154;47.548;18.828;2023-02-03T13:53:43;5.47;;;3.40;;
51238;SDS011;38154;47.548;18.828;2023-02-03T13:56:20;8.50;;;3.67;;
51238;SDS011;38154;47.548;18.828;2023-02-03T14:01:39;15.73;;;5.78;;
51238;SDS011;38154;47.548;18.828;2023-02-03T14:04:06;10.68;;;4.65;;
51238;SDS011;38154;47.548;18.828;2023-02-03T14:14:40;8.05;;;4.40;;
51238;SDS011;38154;47.548;18.828;2023-02-03T14:17:20;6.55;;;3.55;;
51238;SDS011;38154;47.548;18.828;2023-02-03T14:19:59;2.90;;;2.70;;
51238;SDS011;38154;47.548;18.828;2023-02-03T14:22:26;6.18;;;4.43;;
51238;SDS011;38154;47.548;18.828;2023-02-03T14:24:52;7.72;;;3.47;;
51238;SDS011;38154;47.548;18.828;2023-02-03T14:27:22;5.70;;;4.30;;
51238;SDS011;38154;47.548;18.828;2023-02-03T14:30:06;5.82;;;3.15;;
51238;SDS011;38154;47.548;18.828;2023-02-03T14:35:23;9.85;;;4.30;;
51238;SDS011;38154;47.548;18.828;2023-02-03T14:37:56;6.78;;;4.12;;
51238;SDS011;38154;47.548;18.828;2023-02-03T14:59:16;10.55;;;4.87;;
51238;SDS011;38154;47.548;18.828;2023-02-03T15:06:39;13.75;;;7.12;;
51238;SDS011;38154;47.548;18.828;2023-02-03T15:11:49;13.18;;;5.05;;
51238;SDS011;38154;47.548;18.828;2023-02-03T15:16:57;8.98;;;4.82;;
51238;SDS011;38154;47.548;18.828;2023-02-03T15:19:31;11.80;;;5.45;;
51238;SDS011;38154;47.548;18.828;2023-02-03T15:21:59;9.82;;;4.72;;
51238;SDS011;38154;47.548;18.828;2023-02-03T15:24:32;8.00;;;4.82;;
51238;SDS011;38154;47.548;18.828;2023-02-03T15:27:00;10.27;;;5.68;;
51238;SDS011;38154;47.548;18.828;2023-02-03T15:29:27;19.85;;;8.52;;
51238;SDS011;38154;47.548;18.828;2023-02-03T15:32:14;13.10;;;6.50;;
51238;SDS011;38154;47.548;18.828;2023-02-03T15:34:48;27.70;;;11.10;;
51238;SDS011;38154;47.548;18.828;2023-02-03T15:37:27;14.32;;;4.95;;
51238;SDS011;38154;47.548;18.828;2023-02-03T15:43:22;2.10;;;1.85;;
51238;SDS011;38154;47.548;18.828;2023-02-03T15:45:32;33.35;;;13.40;;
51238;SDS011;38154;47.548;18.828;2023-02-03T15:48:06;6.97;;;2.40;;
51238;SDS011;38154;47.548;18.828;2023-02-03T15:50:56;6.10;;;2.30;;
51238;SDS011;38154;47.548;18.828;2023-02-03T15:53:30;14.40;;;3.92;;
51238;SDS011;38154;47.548;18.828;2023-02-03T15:56:00;9.25;;;4.18;;
51238;SDS011;38154;47.548;18.828;2023-02-03T15:58:43;4.15;;;2.55;;
51238;SDS011;38154;47.548;18.828;2023-02-03T16:01:11;3.92;;;2.22;;
51238;SDS011;38154;47.548;18.828;2023-02-03T16:06:10;6.70;;;4.05;;
51238;SDS011;38154;47.548;18.828;2023-02-03T16:08:44;4.32;;;2.47;;
51238;SDS011;38154;47.548;18.828;2023-02-03T16:13:53;5.28;;;3.03;;
51238;SDS011;38154;47.548;18.828;2023-02-03T16:16:21;3.47;;;2.72;;
51238;SDS011;38154;47.548;18.828;2023-02-03T16:18:54;3.80;;;2.40;;
51238;SDS011;38154;47.548;18.828;2023-02-03T16:21:32;3.37;;;2.20;;
51238;SDS011;38154;47.548;18.828;2023-02-03T16:24:01;4.43;;;2.35;;
51238;SDS011;38154;47.548;18.828;2023-02-03T16:26:30;4.05;;;2.87;;
51238;SDS011;38154;47.548;18.828;2023-02-03T16:31:48;4.03;;;3.33;;
51238;SDS011;38154;47.548;18.828;2023-02-03T16:34:32;3.87;;;3.47;;
51238;SDS011;38154;47.548;18.828;2023-02-03T16:37:24;5.70;;;3.92;;
51238;SDS011;38154;47.548;18.828;2023-02-03T16:40:17;10.48;;;5.80;;
51238;SDS011;38154;47.548;18.828;2023-02-03T16:43:12;4.40;;;3.95;;
51238;SDS011;38154;47.548;18.828;2023-02-03T16:45:58;4.72;;;3.55;;
51238;SDS011;38154;47.548;18.828;2023-02-03T16:48:44;8.93;;;4.97;;
51238;SDS011;38154;47.548;18.828;2023-02-03T16:51:33;6.65;;;4.57;;
51238;SDS011;38154;47.548;18.828;2023-02-03T16:54:03;9.48;;;4.82;;
51238;SDS011;38154;47.548;18.828;2023-02-03T16:56:30;6.85;;;4.03;;
51238;SDS011;38154;47.548;18.828;2023-02-03T16:58:56;5.30;;;3.40;;
51238;SDS011;38154;47.548;18.828;2023-02-03T17:01:22;13.02;;;6.57;;
51238;SDS011;38154;47.548;18.828;2023-02-03T17:03:47;7.43;;;5.47;;
51238;SDS011;38154;47.548;18.828;2023-02-03T17:06:13;9.73;;;3.60;;
51238;SDS011;38154;47.548;18.828;2023-02-03T17:08:39;15.50;;;5.68;;
51238;SDS011;38154;47.548;18.828;2023-02-03T17:13:36;6.20;;;4.95;;
51238;SDS011;38154;47.548;18.828;2023-02-03T17:16:06;9.90;;;4.18;;
51238;SDS011;38154;47.548;18.828;2023-02-03T17:18:34;9.00;;;5.32;;
51238;SDS011;38154;47.548;18.828;2023-02-03T17:21:07;20.15;;;5.50;;
51238;SDS011;38154;47.548;18.828;2023-02-03T17:23:36;13.05;;;4.72;;
51238;SDS011;38154;47.548;18.828;2023-02-03T17:28:28;6.70;;;3.62;;
51238;SDS011;38154;47.548;18.828;2023-02-03T17:30:55;12.83;;;7.37;;
51238;SDS011;38154;47.548;18.828;2023-02-03T17:33:23;12.30;;;5.95;;
51238;SDS011;38154;47.548;18.828;2023-02-03T17:35:54;10.68;;;6.00;;
51238;SDS011;38154;47.548;18.828;2023-02-03T17:38:28;8.60;;;4.05;;
51238;SDS011;38154;47.548;18.828;2023-02-03T17:40:55;6.37;;;4.35;;
51238;SDS011;38154;47.548;18.828;2023-02-03T17:43:21;11.63;;;6.43;;
51238;SDS011;38154;47.548;18.828;2023-02-03T17:45:47;10.93;;;5.15;;
51238;SDS011;38154;47.548;18.828;2023-02-03T17:48:12;9.32;;;5.15;;
51238;SDS011;38154;47.548;18.828;2023-02-03T17:50:38;7.87;;;5.25;;
51238;SDS011;38154;47.548;18.828;2023-02-03T17:53:04;16.15;;;7.70;;
51238;SDS011;38154;47.548;18.828;2023-02-03T17:55:31;24.45;;;9.70;;
51238;SDS011;38154;47.548;18.828;2023-02-03T17:57:57;28.83;;;12.35;;
51238;SDS011;38154;47.548;18.828;2023-02-03T18:00:23;14.43;;;7.40;;
51238;SDS011;38154;47.548;18.828;2023-02-03T18:02:50;10.52;;;5.97;;
51238;SDS011;38154;47.548;18.828;2023-02-03T18:05:16;10.87;;;5.33;;
51238;SDS011;38154;47.548;18.828;2023-02-03T18:07:43;8.45;;;3.97;;
51238;SDS011;38154;47.548;18.828;2023-02-03T18:10:09;8.73;;;4.12;;
51238;SDS011;38154;47.548;18.828;2023-02-03T18:12:35;13.20;;;5.72;;
51238;SDS011;38154;47.548;18.828;2023-02-03T18:15:01;11.25;;;6.43;;
51238;SDS011;38154;47.548;18.828;2023-02-03T18:17:28;11.85;;;4.53;;
51238;SDS011;38154;47.548;18.828;2023-02-03T18:19:54;7.28;;;3.87;;
51238;SDS011;38154;47.548;18.828;2023-02-03T18:22:20;11.43;;;5.03;;
51238;SDS011;38154;47.548;18.828;2023-02-03T18:24:46;10.85;;;5.40;;
51238;SDS011;38154;47.548;18.828;2023-02-03T18:27:16;8.02;;;4.40;;
51238;SDS011;38154;47.548;18.828;2023-02-03T18:29:43;15.82;;;5.25;;
51238;SDS011;38154;47.548;18.828;2023-02-03T18:32:09;15.93;;;5.20;;
51238;SDS011;38154;47.548;18.828;2023-02-03T18:34:36;3.97;;;3.08;;
51238;SDS011;38154;47.548;18.828;2023-02-03T18:37:02;10.80;;;5.28;;
51238;SDS011;38154;47.548;18.828;2023-02-03T18:39:28;7.65;;;4.30;;
51238;SDS011;38154;47.548;18.828;2023-02-03T18:41:54;10.90;;;3.47;;
51238;SDS011;38154;47.548;18.828;2023-02-03T18:44:20;2.53;;;2.22;;
51238;SDS011;38154;47.548;18.828;2023-02-03T18:46:46;10.48;;;4.53;;
51238;SDS011;38154;47.548;18.828;2023-02-03T18:49:12;8.27;;;4.40;;
51238;SDS011;38154;47.548;18.828;2023-02-03T18:51:38;6.65;;;2.95;;
51238;SDS011;38154;47.548;18.828;2023-02-03T18:54:04;8.55;;;4.03;;
51238;SDS011;38154;47.548;18.828;2023-02-03T18:56:30;14.00;;;4.15;;
51238;SDS011;38154;47.548;18.828;2023-02-03T18:59:00;12.70;;;5.85;;
51238;SDS011;38154;47.548;18.828;2023-02-03T19:01:30;8.38;;;4.95;;
51238;SDS011;38154;47.548;18.828;2023-02-03T19:03:57;5.75;;;2.95;;
51238;SDS011;38154;47.548;18.828;2023-02-03T19:06:24;1.30;;;1.20;;
51238;SDS011;38154;47.548;18.828;2023-02-03T19:08:52;1.37;;;1.27;;
51238;SDS011;38154;47.548;18.828;2023-02-03T19:11:18;1.60;;;1.50;;
51238;SDS011;38154;47.548;18.828;2023-02-03T19:13:44;3.42;;;2.25;;
51238;SDS011;38154;47.548;18.828;2023-02-03T19:16:11;3.87;;;2.93;;
51238;SDS011;38154;47.548;18.828;2023-02-03T19:18:39;9.77;;;3.53;;
51238;SDS011;38154;47.548;18.828;2023-02-03T19:21:05;7.93;;;2.77;;
51238;SDS011;38154;47.548;18.828;2023-02-03T19:23:31;3.08;;;2.22;;
51238;SDS011;38154;47.548;18.828;2023-02-03T19:25:57;1.42;;;1.30;;
51238;SDS011;38154;47.548;18.828;2023-02-03T19:28:23;1.10;;;1.00;;
51238;SDS011;38154;47.548;18.828;2023-02-03T19:30:49;1.10;;;1.10;;
51238;SDS011;38154;47.548;18.828;2023-02-03T19:33:15;4.37;;;2.75;;
51238;SDS011;38154;47.548;18.828;2023-02-03T19:35:41;1.40;;;1.30;;
51238;SDS011;38154;47.548;18.828;2023-02-03T19:38:07;3.62;;;2.37;;
51238;SDS011;38154;47.548;18.828;2023-02-03T19:40:33;3.50;;;2.17;;
51238;SDS011;38154;47.548;18.828;2023-02-03T19:42:59;2.30;;;2.10;;
51238;SDS011;38154;47.548;18.828;2023-02-03T19:45:25;3.85;;;2.28;;
51238;SDS011;38154;47.548;18.828;2023-02-03T19:47:52;2.58;;;1.40;;
51238;SDS011;38154;47.548;18.828;2023-02-03T19:50:18;1.90;;;1.40;;
51238;SDS011;38154;47.548;18.828;2023-02-03T19:52:44;1.58;;;1.48;;
51238;SDS011;38154;47.548;18.828;2023-02-03T19:55:12;1.80;;;1.52;;
51238;SDS011;38154;47.548;18.828;2023-02-03T19:57:38;4.62;;;2.40;;
51238;SDS011;38154;47.548;18.828;2023-02-03T20:00:05;9.57;;;4.43;;
51238;SDS011;38154;47.548;18.828;2023-02-03T20:02:31;9.48;;;3.75;;
51238;SDS011;38154;47.548;18.828;2023-02-03T20:04:57;5.07;;;3.25;;
51238;SDS011;38154;47.548;18.828;2023-02-03T20:07:23;11.10;;;5.07;;
51238;SDS011;38154;47.548;18.828;2023-02-03T20:09:49;5.93;;;2.67;;
51238;SDS011;38154;47.548;18.828;2023-02-03T20:12:15;3.28;;;2.15;;
51238;SDS011;38154;47.548;18.828;2023-02-03T20:14:41;2.22;;;2.03;;
51238;SDS011;38154;47.548;18.828;2023-02-03T20:17:07;2.00;;;1.70;;
51238;SDS011;38154;47.548;18.828;2023-02-03T20:19:33;2.03;;;1.67;;
51238;SDS011;38154;47.548;18.828;2023-02-03T20:21:59;3.60;;;1.58;;
51238;SDS011;38154;47.548;18.828;2023-02-03T20:24:25;2.53;;;1.03;;
51238;SDS011;38154;47.548;18.828;2023-02-03T20:26:51;1.55;;;1.45;;
51238;SDS011;38154;47.548;18.828;2023-02-03T20:29:17;2.12;;;1.27;;
51238;SDS011;38154;47.548;18.828;2023-02-03T20:31:42;4.82;;;2.83;;
51238;SDS011;38154;47.548;18.828;2023-02-03T20:34:08;3.25;;;1.33;;
51238;SDS011;38154;47.548;18.828;2023-02-03T20:36:35;1.93;;;1.77;;
51238;SDS011;38154;47.548;18.828;2023-02-03T20:39:00;2.92;;;1.87;;
51238;SDS011;38154;47.548;18.828;2023-02-03T20:41:26;9.05;;;2.37;;
51238;SDS011;38154;47.548;18.828;2023-02-03T20:43:53;3.60;;;2.87;;
51238;SDS011;38154;47.548;18.828;2023-02-03T20:46:19;4.22;;;2.55;;
51238;SDS011;38154;47.548;18.828;2023-02-03T20:48:45;1.23;;;1.12;;
51238;SDS011;38154;47.548;18.828;2023-02-03T20:51:11;1.77;;;1.10;;
51238;SDS011;38154;47.548;18.828;2023-02-03T20:53:38;4.55;;;1.05;;
51238;SDS011;38154;47.548;18.828;2023-02-03T20:56:06;0.90;;;0.90;;
51238;SDS011;38154;47.548;18.828;2023-02-03T20:58:38;0.90;;;0.90;;
51238;SDS011;38154;47.548;18.828;2023-02-03T21:01:10;3.10;;;1.65;;
51238;SDS011;38154;47.548;18.828;2023-02-03T21:03:41;3.55;;;2.00;;
51238;SDS011;38154;47.548;18.828;2023-02-03T21:06:26;0.88;;;0.88;;
51238;SDS011;38154;47.548;18.828;2023-02-03T21:08:53;9.15;;;1.50;;
51238;SDS011;38154;47.548;18.828;2023-02-03T21:11:41;0.70;;;0.70;;
51238;SDS011;38154;47.548;18.828;2023-02-03T21:14:42;1.02;;;1.02;;
51238;SDS011;38154;47.548;18.828;2023-02-03T21:17:15;2.25;;;1.42;;
51238;SDS011;38154;47.548;18.828;2023-02-03T21:19:46;1.37;;;1.27;;
51238;SDS011;38154;47.548;18.828;2023-02-03T21:22:20;1.02;;;1.02;;
51238;SDS011;38154;47.548;18.828;2023-02-03T21:24:52;1.08;;;1.08;;
51238;SDS011;38154;47.548;18.828;2023-02-03T21:27:27;1.52;;;0.90;;
51238;SDS011;38154;47.548;18.828;2023-02-03T21:29:54;2.40;;;1.12;;
51238;SDS011;38154;47.548;18.828;2023-02-03T21:32:25;14.82;;;1.60;;
51238;SDS011;38154;47.548;18.828;2023-02-03T21:34:58;7.97;;;1.83;;
51238;SDS011;38154;47.548;18.828;2023-02-03T21:37:29;14.15;;;1.92;;
51238;SDS011;38154;47.548;18.828;2023-02-03T21:42:59;0.93;;;0.93;;
51238;SDS011;38154;47.548;18.828;2023-02-03T21:45:37;1.45;;;1.35;;
51238;SDS011;38154;47.548;18.828;2023-02-03T21:50:51;3.72;;;1.30;;
51238;SDS011;38154;47.548;18.828;2023-02-03T21:53:21;1.48;;;1.00;;
51238;SDS011;38154;47.548;18.828;2023-02-03T21:55:49;5.10;;;1.08;;
51238;SDS011;38154;47.548;18.828;2023-02-03T22:00:50;2.15;;;1.12;;
51238;SDS011;38154;47.548;18.828;2023-02-03T22:05:50;2.17;;;1.05;;
51238;SDS011;38154;47.548;18.828;2023-02-03T22:08:20;1.90;;;1.30;;
51238;SDS011;38154;47.548;18.828;2023-02-03T22:10:47;1.52;;;1.42;;
51238;SDS011;38154;47.548;18.828;2023-02-03T22:13:13;1.08;;;1.08;;
51238;SDS011;38154;47.548;18.828;2023-02-03T22:15:41;3.42;;;1.50;;
51238;SDS011;38154;47.548;18.828;2023-02-03T22:18:07;1.45;;;1.20;;
51238;SDS011;38154;47.548;18.828;2023-02-03T22:20:33;2.17;;;1.98;;
51238;SDS011;38154;47.548;18.828;2023-02-03T22:22:59;1.70;;;1.57;;
51238;SDS011;38154;47.548;18.828;2023-02-03T22:25:25;1.23;;;1.23;;
51238;SDS011;38154;47.548;18.828;2023-02-03T22:27:51;1.23;;;1.12;;
51238;SDS011;38154;47.548;18.828;2023-02-03T22:30:17;1.00;;;1.00;;
51238;SDS011;38154;47.548;18.828;2023-02-03T22:32:43;0.70;;;0.70;;
51238;SDS011;38154;47.548;18.828;2023-02-03T22:35:09;1.35;;;1.25;;
51238;SDS011;38154;47.548;18.828;2023-02-03T22:37:35;1.07;;;1.07;;
51238;SDS011;38154;47.548;18.828;2023-02-03T22:40:02;1.20;;;1.10;;
51238;SDS011;38154;47.548;18.828;2023-02-03T22:42:29;1.12;;;1.00;;
51238;SDS011;38154;47.548;18.828;2023-02-03T22:44:55;6.78;;;1.40;;
51238;SDS011;38154;47.548;18.828;2023-02-03T22:47:20;1.77;;;1.58;;
51238;SDS011;38154;47.548;18.828;2023-02-03T22:49:48;0.95;;;0.95;;
51238;SDS011;38154;47.548;18.828;2023-02-03T22:52:15;13.48;;;1.33;;
51238;SDS011;38154;47.548;18.828;2023-02-03T22:54:41;2.23;;;1.03;;
51238;SDS011;38154;47.548;18.828;2023-02-03T22:57:10;13.85;;;1.52;;
51238;SDS011;38154;47.548;18.828;2023-02-03T22:59:36;2.25;;;1.10;;
51238;SDS011;38154;47.548;18.828;2023-02-03T23:02:02;0.80;;;0.80;;
51238;SDS011;38154;47.548;18.828;2023-02-03T23:04:28;4.60;;;1.30;;
51238;SDS011;38154;47.548;18.828;2023-02-03T23:06:53;2.90;;;1.48;;
51238;SDS011;38154;47.548;18.828;2023-02-03T23:09:19;0.73;;;0.73;;
51238;SDS011;38154;47.548;18.828;2023-02-03T23:11:45;13.73;;;1.48;;
51238;SDS011;38154;47.548;18.828;2023-02-03T23:14:11;1.05;;;1.05;;
51238;SDS011;38154;47.548;18.828;2023-02-03T23:16:38;2.42;;;1.40;;
51238;SDS011;38154;47.548;18.828;2023-02-03T23:19:04;2.30;;;1.73;;
51238;SDS011;38154;47.548;18.828;2023-02-03T23:21:30;0.93;;;0.93;;
51238;SDS011;38154;47.548;18.828;2023-02-03T23:23:56;0.90;;;0.90;;
51238;SDS011;38154;47.548;18.828;2023-02-03T23:26:21;3.47;;;1.40;;
51238;SDS011;38154;47.548;18.828;2023-02-03T23:28:47;1.08;;;1.05;;
51238;SDS011;38154;47.548;18.828;2023-02-03T23:31:13;1.25;;;1.15;;
51238;SDS011;38154;47.548;18.828;2023-02-03T23:33:40;1.05;;;0.90;;
51238;SDS011;38154;47.548;18.828;2023-02-03T23:36:26;1.12;;;1.12;;
51238;SDS011;38154;47.548;18.828;2023-02-03T23:38:52;2.58;;;1.23;;
51238;SDS011;38154;47.548;18.828;2023-02-03T23:41:18;1.00;;;1.00;;
51238;SDS011;38154;47.548;18.828;2023-02-03T23:43:44;1.30;;;1.20;;
51238;SDS011;38154;47.548;18.828;2023-02-03T23:46:10;3.35;;;1.48;;
51238;SDS011;38154;47.548;18.828;2023-02-03T23:48:38;3.75;;;1.27;;
51238;SDS011;38154;47.548;18.828;2023-02-03T23:51:04;1.30;;;1.20;;
51238;SDS011;38154;47.548;18.828;2023-02-03T23:53:30;3.65;;;1.35;;
51238;SDS011;38154;47.548;18.828;2023-02-03T23:55:56;3.15;;;1.12;;
51238;SDS011;38154;47.548;18.828;2023-02-03T23:58:22;8.30;;;1.23;;
